sensor_id;sensor_type;location;lat;lon;timestamp;temperature;humidity
21425;DHT22;10873;51.132;16.848;2023-07-16T00:00:09;29.90;62.30
21425;DHT22;10873;51.132;16.848;2023-07-16T00:02:55;29.90;62.40
21425;DHT22;10873;51.132;16.848;2023-07-16T00:05:23;29.90;62.40
21425;DHT22;10873;51.132;16.848;2023-07-16T00:07:49;29.90;62.40
21425;DHT22;10873;51.132;16.848;2023-07-16T00:10:15;29.90;62.50
21425;DHT22;10873;51.132;16.848;2023-07-16T00:12:41;29.90;62.40
21425;DHT22;10873;51.132;16.848;2023-07-16T00:15:08;29.90;62.50
21425;DHT22;10873;51.132;16.848;2023-07-16T00:17:34;29.90;62.50
21425;DHT22;10873;51.132;16.848;2023-07-16T00:20:00;29.90;62.60
21425;DHT22;10873;51.132;16.848;2023-07-16T00:22:28;29.90;62.60
21425;DHT22;10873;51.132;16.848;2023-07-16T00:24:54;29.90;62.60
21425;DHT22;10873;51.132;16.848;2023-07-16T00:27:20;29.90;62.60
21425;DHT22;10873;51.132;16.848;2023-07-16T00:29:46;29.90;62.60
21425;DHT22;10873;51.132;16.848;2023-07-16T00:32:12;29.80;62.60
21425;DHT22;10873;51.132;16.848;2023-07-16T00:34:38;29.80;62.60
21425;DHT22;10873;51.132;16.848;2023-07-16T00:37:04;29.80;62.60
21425;DHT22;10873;51.132;16.848;2023-07-16T00:39:32;29.80;62.60
21425;DHT22;10873;51.132;16.848;2023-07-16T00:41:57;29.80;62.70
21425;DHT22;10873;51.132;16.848;2023-07-16T00:44:24;29.80;62.70
21425;DHT22;10873;51.132;16.848;2023-07-16T00:46:50;29.80;62.80
21425;DHT22;10873;51.132;16.848;2023-07-16T00:49:16;29.80;62.90
21425;DHT22;10873;51.132;16.848;2023-07-16T00:51:42;29.80;62.90
21425;DHT22;10873;51.132;16.848;2023-07-16T00:54:08;29.80;62.90
21425;DHT22;10873;51.132;16.848;2023-07-16T00:56:36;29.80;62.90
21425;DHT22;10873;51.132;16.848;2023-07-16T00:59:03;29.80;62.90
21425;DHT22;10873;51.132;16.848;2023-07-16T01:01:28;29.80;63.00
21425;DHT22;10873;51.132;16.848;2023-07-16T01:03:55;29.80;63.00
21425;DHT22;10873;51.132;16.848;2023-07-16T01:06:25;29.80;63.00
21425;DHT22;10873;51.132;16.848;2023-07-16T01:09:02;29.80;63.10
21425;DHT22;10873;51.132;16.848;2023-07-16T01:11:29;29.80;63.10
21425;DHT22;10873;51.132;16.848;2023-07-16T01:13:57;29.80;63.20
21425;DHT22;10873;51.132;16.848;2023-07-16T01:16:24;29.70;63.20
21425;DHT22;10873;51.132;16.848;2023-07-16T01:18:50;29.70;63.20
21425;DHT22;10873;51.132;16.848;2023-07-16T01:21:19;29.70;63.30
21425;DHT22;10873;51.132;16.848;2023-07-16T01:23:59;29.70;63.30
21425;DHT22;10873;51.132;16.848;2023-07-16T01:26:36;29.70;63.40
21425;DHT22;10873;51.132;16.848;2023-07-16T01:29:26;29.70;63.40
21425;DHT22;10873;51.132;16.848;2023-07-16T01:31:55;29.70;63.50
21425;DHT22;10873;51.132;16.848;2023-07-16T01:34:22;29.70;63.60
21425;DHT22;10873;51.132;16.848;2023-07-16T01:36:50;29.70;63.50
21425;DHT22;10873;51.132;16.848;2023-07-16T01:39:16;29.70;63.60
21425;DHT22;10873;51.132;16.848;2023-07-16T01:41:42;29.70;63.60
21425;DHT22;10873;51.132;16.848;2023-07-16T01:44:09;29.60;63.60
21425;DHT22;10873;51.132;16.848;2023-07-16T01:46:36;29.60;63.60
21425;DHT22;10873;51.132;16.848;2023-07-16T01:49:02;29.60;63.70
21425;DHT22;10873;51.132;16.848;2023-07-16T01:51:28;29.60;63.70
21425;DHT22;10873;51.132;16.848;2023-07-16T01:53:55;29.60;63.70
21425;DHT22;10873;51.132;16.848;2023-07-16T01:56:20;29.60;63.80
21425;DHT22;10873;51.132;16.848;2023-07-16T01:58:47;29.60;63.80
21425;DHT22;10873;51.132;16.848;2023-07-16T02:01:12;29.60;63.90
21425;DHT22;10873;51.132;16.848;2023-07-16T02:03:40;29.60;63.90
21425;DHT22;10873;51.132;16.848;2023-07-16T02:06:06;29.60;64.00
21425;DHT22;10873;51.132;16.848;2023-07-16T02:08:32;29.60;64.00
21425;DHT22;10873;51.132;16.848;2023-07-16T02:10:58;29.60;64.10
21425;DHT22;10873;51.132;16.848;2023-07-16T02:13:25;29.60;64.10
21425;DHT22;10873;51.132;16.848;2023-07-16T02:15:51;29.60;64.10
21425;DHT22;10873;51.132;16.848;2023-07-16T02:18:17;29.50;64.00
21425;DHT22;10873;51.132;16.848;2023-07-16T02:20:45;29.50;64.00
21425;DHT22;10873;51.132;16.848;2023-07-16T02:23:11;29.50;64.10
21425;DHT22;10873;51.132;16.848;2023-07-16T02:25:37;29.50;64.10
21425;DHT22;10873;51.132;16.848;2023-07-16T02:28:03;29.50;64.10
21425;DHT22;10873;51.132;16.848;2023-07-16T02:30:29;29.50;64.20
21425;DHT22;10873;51.132;16.848;2023-07-16T02:32:55;29.50;64.30
21425;DHT22;10873;51.132;16.848;2023-07-16T02:35:21;29.50;64.30
21425;DHT22;10873;51.132;16.848;2023-07-16T02:37:48;29.50;64.30
21425;DHT22;10873;51.132;16.848;2023-07-16T02:40:14;29.50;64.40
21425;DHT22;10873;51.132;16.848;2023-07-16T02:42:40;29.50;65.10
21425;DHT22;10873;51.132;16.848;2023-07-16T02:45:07;29.50;64.40
21425;DHT22;10873;51.132;16.848;2023-07-16T02:47:33;29.50;64.40
21425;DHT22;10873;51.132;16.848;2023-07-16T02:49:59;29.50;64.40
21425;DHT22;10873;51.132;16.848;2023-07-16T02:52:25;29.50;64.50
21425;DHT22;10873;51.132;16.848;2023-07-16T02:54:53;29.40;64.40
21425;DHT22;10873;51.132;16.848;2023-07-16T02:57:20;29.40;64.40
21425;DHT22;10873;51.132;16.848;2023-07-16T02:59:46;29.40;64.50
21425;DHT22;10873;51.132;16.848;2023-07-16T03:02:12;29.40;64.50
21425;DHT22;10873;51.132;16.848;2023-07-16T03:04:38;29.40;64.50
21425;DHT22;10873;51.132;16.848;2023-07-16T03:07:05;29.40;64.50
21425;DHT22;10873;51.132;16.848;2023-07-16T03:09:31;29.40;64.50
21425;DHT22;10873;51.132;16.848;2023-07-16T03:11:58;29.40;64.50
21425;DHT22;10873;51.132;16.848;2023-07-16T03:14:24;29.40;64.60
21425;DHT22;10873;51.132;16.848;2023-07-16T03:16:50;29.40;64.60
21425;DHT22;10873;51.132;16.848;2023-07-16T03:19:16;29.40;64.60
21425;DHT22;10873;51.132;16.848;2023-07-16T03:21:42;29.40;64.60
21425;DHT22;10873;51.132;16.848;2023-07-16T03:24:08;29.40;64.60
21425;DHT22;10873;51.132;16.848;2023-07-16T03:26:34;29.40;64.60
21425;DHT22;10873;51.132;16.848;2023-07-16T03:29:01;29.30;64.60
21425;DHT22;10873;51.132;16.848;2023-07-16T03:31:28;29.30;64.50
21425;DHT22;10873;51.132;16.848;2023-07-16T03:33:54;29.30;64.60
21425;DHT22;10873;51.132;16.848;2023-07-16T03:36:20;29.30;64.60
21425;DHT22;10873;51.132;16.848;2023-07-16T03:38:46;29.40;64.70
21425;DHT22;10873;51.132;16.848;2023-07-16T03:41:12;29.40;64.80
21425;DHT22;10873;51.132;16.848;2023-07-16T03:43:38;29.30;64.80
21425;DHT22;10873;51.132;16.848;2023-07-16T03:46:05;29.40;65.00
21425;DHT22;10873;51.132;16.848;2023-07-16T03:48:33;29.40;65.00
21425;DHT22;10873;51.132;16.848;2023-07-16T03:50:59;29.40;65.10
21425;DHT22;10873;51.132;16.848;2023-07-16T03:53:24;29.40;65.20
21425;DHT22;10873;51.132;16.848;2023-07-16T03:55:51;29.40;65.30
21425;DHT22;10873;51.132;16.848;2023-07-16T03:58:17;29.40;65.40
21425;DHT22;10873;51.132;16.848;2023-07-16T04:00:43;29.40;65.50
21425;DHT22;10873;51.132;16.848;2023-07-16T04:03:11;29.40;65.60
21425;DHT22;10873;51.132;16.848;2023-07-16T04:05:37;29.40;65.60
21425;DHT22;10873;51.132;16.848;2023-07-16T04:08:03;29.40;65.60
21425;DHT22;10873;51.132;16.848;2023-07-16T04:10:29;29.40;66.40
21425;DHT22;10873;51.132;16.848;2023-07-16T04:12:55;29.40;65.60
21425;DHT22;10873;51.132;16.848;2023-07-16T04:15:21;29.40;65.60
21425;DHT22;10873;51.132;16.848;2023-07-16T04:17:47;29.40;65.70
21425;DHT22;10873;51.132;16.848;2023-07-16T04:20:15;29.40;65.70
21425;DHT22;10873;51.132;16.848;2023-07-16T04:22:41;29.40;65.70
21425;DHT22;10873;51.132;16.848;2023-07-16T04:25:08;29.40;65.80
21425;DHT22;10873;51.132;16.848;2023-07-16T04:27:34;29.40;65.80
21425;DHT22;10873;51.132;16.848;2023-07-16T04:30:00;29.40;66.00
21425;DHT22;10873;51.132;16.848;2023-07-16T04:32:26;29.50;66.00
21425;DHT22;10873;51.132;16.848;2023-07-16T04:34:52;29.50;66.00
21425;DHT22;10873;51.132;16.848;2023-07-16T04:37:19;29.50;66.00
21425;DHT22;10873;51.132;16.848;2023-07-16T04:39:45;29.50;66.10
21425;DHT22;10873;51.132;16.848;2023-07-16T04:42:11;29.50;66.00
21425;DHT22;10873;51.132;16.848;2023-07-16T04:44:38;29.50;66.00
21425;DHT22;10873;51.132;16.848;2023-07-16T04:47:04;29.50;66.00
21425;DHT22;10873;51.132;16.848;2023-07-16T04:49:31;29.50;66.10
21425;DHT22;10873;51.132;16.848;2023-07-16T04:51:57;29.50;66.00
21425;DHT22;10873;51.132;16.848;2023-07-16T04:54:24;29.60;66.10
21425;DHT22;10873;51.132;16.848;2023-07-16T04:56:50;29.60;66.80
21425;DHT22;10873;51.132;16.848;2023-07-16T04:59:16;29.60;66.00
21425;DHT22;10873;51.132;16.848;2023-07-16T05:01:42;29.60;66.00
21425;DHT22;10873;51.132;16.848;2023-07-16T05:04:08;29.60;65.90
21425;DHT22;10873;51.132;16.848;2023-07-16T05:06:34;29.60;65.90
21425;DHT22;10873;51.132;16.848;2023-07-16T05:09:01;29.60;65.90
21425;DHT22;10873;51.132;16.848;2023-07-16T05:11:28;29.60;65.80
21425;DHT22;10873;51.132;16.848;2023-07-16T05:13:54;29.60;65.80
21425;DHT22;10873;51.132;16.848;2023-07-16T05:16:21;29.60;65.70
21425;DHT22;10873;51.132;16.848;2023-07-16T05:18:47;29.60;65.70
21425;DHT22;10873;51.132;16.848;2023-07-16T05:21:13;29.60;65.60
21425;DHT22;10873;51.132;16.848;2023-07-16T05:23:40;29.70;65.70
21425;DHT22;10873;51.132;16.848;2023-07-16T05:26:06;29.60;65.50
21425;DHT22;10873;51.132;16.848;2023-07-16T05:28:33;29.70;65.60
21425;DHT22;10873;51.132;16.848;2023-07-16T05:31:00;29.70;65.50
21425;DHT22;10873;51.132;16.848;2023-07-16T05:33:26;29.70;65.50
21425;DHT22;10873;51.132;16.848;2023-07-16T05:35:52;29.70;65.50
21425;DHT22;10873;51.132;16.848;2023-07-16T05:38:18;29.70;65.40
21425;DHT22;10873;51.132;16.848;2023-07-16T05:40:44;29.70;65.40
21425;DHT22;10873;51.132;16.848;2023-07-16T05:43:10;29.70;65.30
21425;DHT22;10873;51.132;16.848;2023-07-16T05:45:38;29.80;65.40
21425;DHT22;10873;51.132;16.848;2023-07-16T05:48:04;29.70;65.20
21425;DHT22;10873;51.132;16.848;2023-07-16T05:50:30;29.70;65.20
21425;DHT22;10873;51.132;16.848;2023-07-16T05:52:56;29.80;65.30
21425;DHT22;10873;51.132;16.848;2023-07-16T05:55:22;29.80;65.20
21425;DHT22;10873;51.132;16.848;2023-07-16T05:57:48;29.80;65.20
21425;DHT22;10873;51.132;16.848;2023-07-16T06:00:14;29.80;65.20
21425;DHT22;10873;51.132;16.848;2023-07-16T06:02:42;29.80;65.10
21425;DHT22;10873;51.132;16.848;2023-07-16T06:05:08;29.80;65.20
21425;DHT22;10873;51.132;16.848;2023-07-16T06:07:35;29.70;65.10
21425;DHT22;10873;51.132;16.848;2023-07-16T06:10:00;29.70;65.20
21425;DHT22;10873;51.132;16.848;2023-07-16T06:12:27;29.60;65.30
21425;DHT22;10873;51.132;16.848;2023-07-16T06:14:53;29.60;65.40
21425;DHT22;10873;51.132;16.848;2023-07-16T06:17:19;29.60;66.70
21425;DHT22;10873;51.132;16.848;2023-07-16T06:19:47;29.50;66.40
21425;DHT22;10873;51.132;16.848;2023-07-16T06:22:15;29.50;66.60
21425;DHT22;10873;51.132;16.848;2023-07-16T06:24:41;29.50;66.70
21425;DHT22;10873;51.132;16.848;2023-07-16T06:27:07;29.50;66.70
21425;DHT22;10873;51.132;16.848;2023-07-16T06:29:33;29.50;66.70
21425;DHT22;10873;51.132;16.848;2023-07-16T06:32:00;29.50;66.70
21425;DHT22;10873;51.132;16.848;2023-07-16T06:34:26;29.50;66.70
21425;DHT22;10873;51.132;16.848;2023-07-16T06:36:54;29.50;66.60
21425;DHT22;10873;51.132;16.848;2023-07-16T06:39:20;29.40;66.40
21425;DHT22;10873;51.132;16.848;2023-07-16T06:41:46;29.40;66.30
21425;DHT22;10873;51.132;16.848;2023-07-16T06:44:12;29.40;66.20
21425;DHT22;10873;51.132;16.848;2023-07-16T06:46:38;29.40;66.80
21425;DHT22;10873;51.132;16.848;2023-07-16T06:49:05;29.40;65.80
21425;DHT22;10873;51.132;16.848;2023-07-16T06:51:32;29.40;65.70
21425;DHT22;10873;51.132;16.848;2023-07-16T06:54:00;29.40;65.60
21425;DHT22;10873;51.132;16.848;2023-07-16T06:56:26;29.40;65.50
21425;DHT22;10873;51.132;16.848;2023-07-16T06:58:52;29.40;65.50
21425;DHT22;10873;51.132;16.848;2023-07-16T07:01:18;29.40;65.50
21425;DHT22;10873;51.132;16.848;2023-07-16T07:03:44;29.40;65.40
21425;DHT22;10873;51.132;16.848;2023-07-16T07:06:10;29.40;65.40
21425;DHT22;10873;51.132;16.848;2023-07-16T07:08:36;29.40;65.30
21425;DHT22;10873;51.132;16.848;2023-07-16T07:11:04;29.40;65.30
21425;DHT22;10873;51.132;16.848;2023-07-16T07:13:30;29.40;65.40
21425;DHT22;10873;51.132;16.848;2023-07-16T07:15:56;29.40;65.40
21425;DHT22;10873;51.132;16.848;2023-07-16T07:18:22;29.50;65.50
21425;DHT22;10873;51.132;16.848;2023-07-16T07:20:48;29.50;65.40
21425;DHT22;10873;51.132;16.848;2023-07-16T07:23:15;29.50;65.50
21425;DHT22;10873;51.132;16.848;2023-07-16T07:25:41;29.50;65.40
21425;DHT22;10873;51.132;16.848;2023-07-16T07:28:09;29.50;65.40
21425;DHT22;10873;51.132;16.848;2023-07-16T07:30:35;29.50;65.40
21425;DHT22;10873;51.132;16.848;2023-07-16T07:33:01;29.50;65.40
21425;DHT22;10873;51.132;16.848;2023-07-16T07:35:27;29.50;65.40
21425;DHT22;10873;51.132;16.848;2023-07-16T07:37:53;29.50;65.40
21425;DHT22;10873;51.132;16.848;2023-07-16T07:40:19;29.50;65.40
21425;DHT22;10873;51.132;16.848;2023-07-16T07:42:45;29.50;65.40
21425;DHT22;10873;51.132;16.848;2023-07-16T07:45:12;29.50;65.40
21425;DHT22;10873;51.132;16.848;2023-07-16T07:47:38;29.50;65.50
21425;DHT22;10873;51.132;16.848;2023-07-16T07:50:06;29.50;65.50
21425;DHT22;10873;51.132;16.848;2023-07-16T07:52:32;29.50;65.50
21425;DHT22;10873;51.132;16.848;2023-07-16T07:54:58;29.50;65.50
21425;DHT22;10873;51.132;16.848;2023-07-16T07:57:24;29.50;65.50
21425;DHT22;10873;51.132;16.848;2023-07-16T07:59:50;29.50;65.50
21425;DHT22;10873;51.132;16.848;2023-07-16T08:02:24;29.50;65.50
21425;DHT22;10873;51.132;16.848;2023-07-16T08:04:50;29.50;65.50
21425;DHT22;10873;51.132;16.848;2023-07-16T08:07:16;29.50;65.50
21425;DHT22;10873;51.132;16.848;2023-07-16T08:09:43;29.40;65.30
21425;DHT22;10873;51.132;16.848;2023-07-16T08:12:09;29.50;65.40
21425;DHT22;10873;51.132;16.848;2023-07-16T08:14:35;29.50;65.50
21425;DHT22;10873;51.132;16.848;2023-07-16T08:17:01;29.50;65.50
21425;DHT22;10873;51.132;16.848;2023-07-16T08:19:28;29.50;65.50
21425;DHT22;10873;51.132;16.848;2023-07-16T08:21:54;29.50;65.50
21425;DHT22;10873;51.132;16.848;2023-07-16T08:24:20;29.50;65.50
21425;DHT22;10873;51.132;16.848;2023-07-16T08:26:46;29.50;65.50
21425;DHT22;10873;51.132;16.848;2023-07-16T08:29:13;29.50;65.50
21425;DHT22;10873;51.132;16.848;2023-07-16T08:31:39;29.50;65.50
21425;DHT22;10873;51.132;16.848;2023-07-16T08:34:06;29.40;65.40
21425;DHT22;10873;51.132;16.848;2023-07-16T08:36:34;29.50;65.40
21425;DHT22;10873;51.132;16.848;2023-07-16T08:39:00;29.40;65.40
21425;DHT22;10873;51.132;16.848;2023-07-16T08:41:26;29.40;65.40
21425;DHT22;10873;51.132;16.848;2023-07-16T08:43:53;29.40;65.40
21425;DHT22;10873;51.132;16.848;2023-07-16T08:46:19;29.50;65.50
21425;DHT22;10873;51.132;16.848;2023-07-16T08:48:45;29.40;65.30
21425;DHT22;10873;51.132;16.848;2023-07-16T08:51:14;29.40;65.30
21425;DHT22;10873;51.132;16.848;2023-07-16T08:53:41;29.40;65.40
21425;DHT22;10873;51.132;16.848;2023-07-16T08:56:07;29.50;65.40
21425;DHT22;10873;51.132;16.848;2023-07-16T08:58:34;29.40;65.30
21425;DHT22;10873;51.132;16.848;2023-07-16T09:01:01;29.40;65.30
21425;DHT22;10873;51.132;16.848;2023-07-16T09:03:27;29.40;65.40
21425;DHT22;10873;51.132;16.848;2023-07-16T09:05:54;29.40;65.30
21425;DHT22;10873;51.132;16.848;2023-07-16T09:08:20;29.40;65.30
21425;DHT22;10873;51.132;16.848;2023-07-16T09:10:54;29.40;65.40
21425;DHT22;10873;51.132;16.848;2023-07-16T09:13:21;29.40;65.30
21425;DHT22;10873;51.132;16.848;2023-07-16T09:15:51;29.40;65.30
21425;DHT22;10873;51.132;16.848;2023-07-16T09:18:20;29.40;65.40
21425;DHT22;10873;51.132;16.848;2023-07-16T09:20:45;29.40;65.40
21425;DHT22;10873;51.132;16.848;2023-07-16T09:23:12;29.40;65.40
21425;DHT22;10873;51.132;16.848;2023-07-16T09:25:37;29.40;65.40
21425;DHT22;10873;51.132;16.848;2023-07-16T09:28:07;29.40;65.40
21425;DHT22;10873;51.132;16.848;2023-07-16T09:30:33;29.40;65.50
21425;DHT22;10873;51.132;16.848;2023-07-16T09:33:09;29.40;65.60
21425;DHT22;10873;51.132;16.848;2023-07-16T09:35:36;29.40;66.40
21425;DHT22;10873;51.132;16.848;2023-07-16T09:38:02;29.40;66.70
21425;DHT22;10873;51.132;16.848;2023-07-16T09:40:29;29.40;66.60
21425;DHT22;10873;51.132;16.848;2023-07-16T09:42:56;29.40;66.60
21425;DHT22;10873;51.132;16.848;2023-07-16T09:45:23;29.30;66.70
21425;DHT22;10873;51.132;16.848;2023-07-16T09:47:50;29.30;66.90
21425;DHT22;10873;51.132;16.848;2023-07-16T09:50:15;29.30;66.90
21425;DHT22;10873;51.132;16.848;2023-07-16T09:52:42;29.30;66.70
21425;DHT22;10873;51.132;16.848;2023-07-16T09:55:09;29.30;66.60
21425;DHT22;10873;51.132;16.848;2023-07-16T09:57:38;29.30;66.30
21425;DHT22;10873;51.132;16.848;2023-07-16T10:00:07;29.40;66.10
21425;DHT22;10873;51.132;16.848;2023-07-16T10:02:39;29.40;66.00
21425;DHT22;10873;51.132;16.848;2023-07-16T10:05:12;29.40;65.90
21425;DHT22;10873;51.132;16.848;2023-07-16T10:07:40;29.40;65.80
21425;DHT22;10873;51.132;16.848;2023-07-16T10:10:08;29.40;65.70
21425;DHT22;10873;51.132;16.848;2023-07-16T10:12:35;29.40;65.60
21425;DHT22;10873;51.132;16.848;2023-07-16T10:15:01;29.50;65.60
21425;DHT22;10873;51.132;16.848;2023-07-16T10:17:31;29.50;65.50
21425;DHT22;10873;51.132;16.848;2023-07-16T10:20:00;29.50;65.30
21425;DHT22;10873;51.132;16.848;2023-07-16T10:22:34;29.50;65.40
21425;DHT22;10873;51.132;16.848;2023-07-16T10:25:01;29.50;65.30
21425;DHT22;10873;51.132;16.848;2023-07-16T10:27:29;29.50;66.10
21425;DHT22;10873;51.132;16.848;2023-07-16T10:29:55;29.50;65.20
21425;DHT22;10873;51.132;16.848;2023-07-16T10:32:22;29.60;65.30
21425;DHT22;10873;51.132;16.848;2023-07-16T10:34:51;29.60;65.00
21425;DHT22;10873;51.132;16.848;2023-07-16T10:37:19;29.60;64.60
21425;DHT22;10873;51.132;16.848;2023-07-16T10:39:46;29.60;64.20
21425;DHT22;10873;51.132;16.848;2023-07-16T10:42:13;29.60;64.00
21425;DHT22;10873;51.132;16.848;2023-07-16T10:44:39;29.60;63.60
21425;DHT22;10873;51.132;16.848;2023-07-16T10:47:06;29.60;63.20
21425;DHT22;10873;51.132;16.848;2023-07-16T10:49:32;29.70;63.70
21425;DHT22;10873;51.132;16.848;2023-07-16T10:52:00;29.70;62.70
21425;DHT22;10873;51.132;16.848;2023-07-16T10:54:28;29.70;62.30
21425;DHT22;10873;51.132;16.848;2023-07-16T10:56:54;29.70;62.10
21425;DHT22;10873;51.132;16.848;2023-07-16T10:59:20;29.70;62.10
21425;DHT22;10873;51.132;16.848;2023-07-16T11:01:47;29.80;61.90
21425;DHT22;10873;51.132;16.848;2023-07-16T11:04:13;29.80;61.70
21425;DHT22;10873;51.132;16.848;2023-07-16T11:06:39;29.80;61.60
21425;DHT22;10873;51.132;16.848;2023-07-16T11:09:06;29.80;61.50
21425;DHT22;10873;51.132;16.848;2023-07-16T11:11:34;29.80;61.40
21425;DHT22;10873;51.132;16.848;2023-07-16T11:14:04;29.80;61.50
21425;DHT22;10873;51.132;16.848;2023-07-16T11:16:33;29.80;61.50
21425;DHT22;10873;51.132;16.848;2023-07-16T11:18:59;29.80;61.60
21425;DHT22;10873;51.132;16.848;2023-07-16T11:21:25;29.80;61.70
21425;DHT22;10873;51.132;16.848;2023-07-16T11:23:51;29.80;61.80
21425;DHT22;10873;51.132;16.848;2023-07-16T11:26:17;29.80;61.90
21425;DHT22;10873;51.132;16.848;2023-07-16T11:28:44;29.80;62.00
21425;DHT22;10873;51.132;16.848;2023-07-16T11:31:12;29.80;62.10
21425;DHT22;10873;51.132;16.848;2023-07-16T11:33:38;29.90;62.30
21425;DHT22;10873;51.132;16.848;2023-07-16T11:36:04;29.90;62.40
21425;DHT22;10873;51.132;16.848;2023-07-16T11:38:36;29.80;62.50
21425;DHT22;10873;51.132;16.848;2023-07-16T11:41:03;29.90;62.70
21425;DHT22;10873;51.132;16.848;2023-07-16T11:43:29;29.90;62.90
21425;DHT22;10873;51.132;16.848;2023-07-16T11:46:00;29.90;63.00
21425;DHT22;10873;51.132;16.848;2023-07-16T11:48:26;29.90;63.20
21425;DHT22;10873;51.132;16.848;2023-07-16T11:50:52;29.90;64.10
21425;DHT22;10873;51.132;16.848;2023-07-16T11:53:18;29.90;63.40
21425;DHT22;10873;51.132;16.848;2023-07-16T11:55:44;29.90;63.60
21425;DHT22;10873;51.132;16.848;2023-07-16T11:58:10;29.90;63.70
21425;DHT22;10873;51.132;16.848;2023-07-16T12:00:36;30.00;63.90
21425;DHT22;10873;51.132;16.848;2023-07-16T12:03:04;30.00;64.00
21425;DHT22;10873;51.132;16.848;2023-07-16T12:05:30;30.00;64.10
21425;DHT22;10873;51.132;16.848;2023-07-16T12:07:56;30.00;64.10
21425;DHT22;10873;51.132;16.848;2023-07-16T12:10:22;30.00;64.10
21425;DHT22;10873;51.132;16.848;2023-07-16T12:12:48;30.00;64.20
21425;DHT22;10873;51.132;16.848;2023-07-16T12:15:14;30.00;64.10
21425;DHT22;10873;51.132;16.848;2023-07-16T12:17:40;30.00;64.20
21425;DHT22;10873;51.132;16.848;2023-07-16T12:20:08;30.00;64.20
21425;DHT22;10873;51.132;16.848;2023-07-16T12:22:34;30.00;64.30
21425;DHT22;10873;51.132;16.848;2023-07-16T12:25:02;30.00;64.50
21425;DHT22;10873;51.132;16.848;2023-07-16T12:27:28;30.00;66.30
21425;DHT22;10873;51.132;16.848;2023-07-16T12:29:54;30.00;67.80
21425;DHT22;10873;51.132;16.848;2023-07-16T12:32:20;29.90;67.40
21425;DHT22;10873;51.132;16.848;2023-07-16T12:34:46;30.00;67.10
21425;DHT22;10873;51.132;16.848;2023-07-16T12:37:14;30.00;67.10
21425;DHT22;10873;51.132;16.848;2023-07-16T12:39:40;30.00;67.00
21425;DHT22;10873;51.132;16.848;2023-07-16T12:42:06;30.10;68.30
21425;DHT22;10873;51.132;16.848;2023-07-16T12:44:32;30.20;69.50
21425;DHT22;10873;51.132;16.848;2023-07-16T12:46:58;30.40;71.00
21425;DHT22;10873;51.132;16.848;2023-07-16T12:49:24;30.70;72.20
21425;DHT22;10873;51.132;16.848;2023-07-16T12:51:50;31.00;72.90
21425;DHT22;10873;51.132;16.848;2023-07-16T12:54:18;31.40;72.90
21425;DHT22;10873;51.132;16.848;2023-07-16T12:56:44;31.70;72.40
21425;DHT22;10873;51.132;16.848;2023-07-16T12:59:11;32.00;72.00
21425;DHT22;10873;51.132;16.848;2023-07-16T13:01:37;32.30;71.50
21425;DHT22;10873;51.132;16.848;2023-07-16T13:04:03;32.50;71.60
21425;DHT22;10873;51.132;16.848;2023-07-16T13:06:29;32.60;71.10
21425;DHT22;10873;51.132;16.848;2023-07-16T13:08:55;32.50;72.10
21425;DHT22;10873;51.132;16.848;2023-07-16T13:11:23;32.60;72.90
21425;DHT22;10873;51.132;16.848;2023-07-16T13:13:49;32.80;72.00
21425;DHT22;10873;51.132;16.848;2023-07-16T13:16:15;33.00;71.40
21425;DHT22;10873;51.132;16.848;2023-07-16T13:18:42;33.10;71.40
21425;DHT22;10873;51.132;16.848;2023-07-16T13:21:07;33.10;72.60
21425;DHT22;10873;51.132;16.848;2023-07-16T13:23:34;33.00;72.40
21425;DHT22;10873;51.132;16.848;2023-07-16T13:26:01;33.10;72.20
21425;DHT22;10873;51.132;16.848;2023-07-16T13:28:28;33.30;71.20
21425;DHT22;10873;51.132;16.848;2023-07-16T13:30:54;33.50;70.20
21425;DHT22;10873;51.132;16.848;2023-07-16T13:33:21;33.60;70.50
21425;DHT22;10873;51.132;16.848;2023-07-16T13:35:48;33.60;71.10
21425;DHT22;10873;51.132;16.848;2023-07-16T13:38:14;33.50;70.70
21425;DHT22;10873;51.132;16.848;2023-07-16T13:40:40;33.60;70.30
21425;DHT22;10873;51.132;16.848;2023-07-16T13:43:06;33.80;69.70
21425;DHT22;10873;51.132;16.848;2023-07-16T13:45:34;33.90;69.90
21425;DHT22;10873;51.132;16.848;2023-07-16T13:48:00;33.80;68.60
21425;DHT22;10873;51.132;16.848;2023-07-16T13:50:26;33.80;68.80
21425;DHT22;10873;51.132;16.848;2023-07-16T13:52:52;33.90;68.10
21425;DHT22;10873;51.132;16.848;2023-07-16T13:55:18;34.00;68.40
21425;DHT22;10873;51.132;16.848;2023-07-16T13:57:44;34.00;66.40
21425;DHT22;10873;51.132;16.848;2023-07-16T14:00:12;33.90;66.40
21425;DHT22;10873;51.132;16.848;2023-07-16T14:02:40;33.90;66.00
21425;DHT22;10873;51.132;16.848;2023-07-16T14:05:06;33.80;65.20
21425;DHT22;10873;51.132;16.848;2023-07-16T14:07:33;33.70;64.40
21425;DHT22;10873;51.132;16.848;2023-07-16T14:09:58;33.50;63.80
21425;DHT22;10873;51.132;16.848;2023-07-16T14:12:25;33.50;63.40
21425;DHT22;10873;51.132;16.848;2023-07-16T14:14:51;33.30;62.90
21425;DHT22;10873;51.132;16.848;2023-07-16T14:17:17;33.30;62.30
21425;DHT22;10873;51.132;16.848;2023-07-16T14:19:44;33.20;61.70
21425;DHT22;10873;51.132;16.848;2023-07-16T14:22:10;33.10;60.60
21425;DHT22;10873;51.132;16.848;2023-07-16T14:24:38;33.00;59.90
21425;DHT22;10873;51.132;16.848;2023-07-16T14:27:06;32.90;58.80
21425;DHT22;10873;51.132;16.848;2023-07-16T14:29:32;32.90;58.30
21425;DHT22;10873;51.132;16.848;2023-07-16T14:31:59;32.80;57.80
21425;DHT22;10873;51.132;16.848;2023-07-16T14:34:25;32.80;57.60
21425;DHT22;10873;51.132;16.848;2023-07-16T14:36:53;32.70;57.30
21425;DHT22;10873;51.132;16.848;2023-07-16T14:39:19;32.70;57.00
21425;DHT22;10873;51.132;16.848;2023-07-16T14:41:45;32.60;56.80
21425;DHT22;10873;51.132;16.848;2023-07-16T14:44:11;32.60;56.70
21425;DHT22;10873;51.132;16.848;2023-07-16T14:46:38;32.50;56.70
21425;DHT22;10873;51.132;16.848;2023-07-16T14:49:04;32.50;57.00
21425;DHT22;10873;51.132;16.848;2023-07-16T14:51:30;32.50;57.20
21425;DHT22;10873;51.132;16.848;2023-07-16T14:53:57;32.40;57.30
21425;DHT22;10873;51.132;16.848;2023-07-16T14:56:23;32.40;57.50
21425;DHT22;10873;51.132;16.848;2023-07-16T14:58:49;32.30;57.60
21425;DHT22;10873;51.132;16.848;2023-07-16T15:01:15;32.30;57.80
21425;DHT22;10873;51.132;16.848;2023-07-16T15:03:41;32.30;58.00
21425;DHT22;10873;51.132;16.848;2023-07-16T15:06:08;32.20;58.00
21425;DHT22;10873;51.132;16.848;2023-07-16T15:08:34;32.20;58.30
21425;DHT22;10873;51.132;16.848;2023-07-16T15:11:02;32.20;58.50